sensor_id;sensor_type;location;lat;lon;timestamp;P1;durP1;ratioP1;P2;durP2;ratioP2
47715;SDS011;33476;50.984;3.538;2023-12-14T00:01:34;37.65;;;15.65;;
47715;SDS011;33476;50.984;3.538;2023-12-14T00:04:00;41.92;;;16.98;;
47715;SDS011;33476;50.984;3.538;2023-12-14T00:06:25;37.72;;;15.30;;
47715;SDS011;33476;50.984;3.538;2023-12-14T00:08:50;35.08;;;15.68;;
47715;SDS011;33476;50.984;3.538;2023-12-14T00:11:16;42.55;;;15.50;;
47715;SDS011;33476;50.984;3.538;2023-12-14T00:13:41;35.03;;;14.95;;
47715;SDS011;33476;50.984;3.538;2023-12-14T00:16:07;43.58;;;16.05;;
47715;SDS011;33476;50.984;3.538;2023-12-14T00:18:32;40.30;;;15.45;;
47715;SDS011;33476;50.984;3.538;2023-12-14T00:20:58;36.55;;;15.23;;
47715;SDS011;33476;50.984;3.538;2023-12-14T00:23:23;41.83;;;16.02;;
47715;SDS011;33476;50.984;3.538;2023-12-14T00:25:49;44.38;;;15.93;;
47715;SDS011;33476;50.984;3.538;2023-12-14T00:28:15;43.70;;;15.25;;
47715;SDS011;33476;50.984;3.538;2023-12-14T00:30:40;40.90;;;15.63;;
47715;SDS011;33476;50.984;3.538;2023-12-14T00:33:06;40.53;;;16.17;;
47715;SDS011;33476;50.984;3.538;2023-12-14T00:35:31;43.67;;;16.55;;
47715;SDS011;33476;50.984;3.538;2023-12-14T00:37:56;41.65;;;15.88;;
47715;SDS011;33476;50.984;3.538;2023-12-14T00:40:22;43.08;;;16.85;;
47715;SDS011;33476;50.984;3.538;2023-12-14T00:42:47;41.10;;;16.15;;
47715;SDS011;33476;50.984;3.538;2023-12-14T00:45:12;42.58;;;16.25;;
47715;SDS011;33476;50.984;3.538;2023-12-14T00:47:38;45.88;;;16.05;;
47715;SDS011;33476;50.984;3.538;2023-12-14T00:50:03;40.85;;;16.25;;
47715;SDS011;33476;50.984;3.538;2023-12-14T00:52:29;46.25;;;17.60;;
47715;SDS011;33476;50.984;3.538;2023-12-14T00:54:55;45.13;;;17.05;;
47715;SDS011;33476;50.984;3.538;2023-12-14T00:57:20;38.20;;;16.10;;
47715;SDS011;33476;50.984;3.538;2023-12-14T00:59:45;34.60;;;14.02;;
47715;SDS011;33476;50.984;3.538;2023-12-14T01:02:11;36.08;;;14.85;;
47715;SDS011;33476;50.984;3.538;2023-12-14T01:04:37;33.08;;;14.13;;
47715;SDS011;33476;50.984;3.538;2023-12-14T01:07:02;26.50;;;13.60;;
47715;SDS011;33476;50.984;3.538;2023-12-14T01:09:28;29.45;;;12.98;;
47715;SDS011;33476;50.984;3.538;2023-12-14T01:11:54;25.92;;;11.35;;
47715;SDS011;33476;50.984;3.538;2023-12-14T01:14:19;18.27;;;9.85;;
47715;SDS011;33476;50.984;3.538;2023-12-14T01:16:44;20.35;;;10.65;;
47715;SDS011;33476;50.984;3.538;2023-12-14T01:19:10;18.10;;;8.93;;
47715;SDS011;33476;50.984;3.538;2023-12-14T01:21:35;17.15;;;8.85;;
47715;SDS011;33476;50.984;3.538;2023-12-14T01:24:00;16.13;;;8.20;;
47715;SDS011;33476;50.984;3.538;2023-12-14T01:26:26;14.57;;;8.40;;
47715;SDS011;33476;50.984;3.538;2023-12-14T01:28:52;18.25;;;7.63;;
47715;SDS011;33476;50.984;3.538;2023-12-14T01:31:18;17.13;;;8.88;;
47715;SDS011;33476;50.984;3.538;2023-12-14T01:33:43;14.00;;;7.82;;
47715;SDS011;33476;50.984;3.538;2023-12-14T01:36:10;16.27;;;7.80;;
47715;SDS011;33476;50.984;3.538;2023-12-14T01:38:36;19.65;;;8.23;;
47715;SDS011;33476;50.984;3.538;2023-12-14T01:41:02;17.50;;;8.55;;
47715;SDS011;33476;50.984;3.538;2023-12-14T01:43:27;14.40;;;8.00;;
47715;SDS011;33476;50.984;3.538;2023-12-14T01:45:53;14.15;;;7.82;;
47715;SDS011;33476;50.984;3.538;2023-12-14T01:48:18;16.25;;;7.22;;
47715;SDS011;33476;50.984;3.538;2023-12-14T01:50:43;13.38;;;7.55;;
47715;SDS011;33476;50.984;3.538;2023-12-14T01:53:09;10.30;;;6.32;;
47715;SDS011;33476;50.984;3.538;2023-12-14T01:55:34;12.65;;;6.95;;
47715;SDS011;33476;50.984;3.538;2023-12-14T01:57:59;9.68;;;6.47;;
47715;SDS011;33476;50.984;3.538;2023-12-14T02:00:30;12.52;;;6.43;;
47715;SDS011;33476;50.984;3.538;2023-12-14T02:03:02;9.50;;;5.75;;
47715;SDS011;33476;50.984;3.538;2023-12-14T02:05:27;13.68;;;6.45;;
47715;SDS011;33476;50.984;3.538;2023-12-14T02:07:52;9.85;;;5.93;;
47715;SDS011;33476;50.984;3.538;2023-12-14T02:10:18;9.13;;;5.35;;
47715;SDS011;33476;50.984;3.538;2023-12-14T02:12:43;9.27;;;5.32;;
47715;SDS011;33476;50.984;3.538;2023-12-14T02:15:08;10.68;;;5.28;;
47715;SDS011;33476;50.984;3.538;2023-12-14T02:17:34;12.23;;;5.63;;
47715;SDS011;33476;50.984;3.538;2023-12-14T02:19:59;12.05;;;5.63;;
47715;SDS011;33476;50.984;3.538;2023-12-14T02:22:26;11.52;;;4.88;;
47715;SDS011;33476;50.984;3.538;2023-12-14T02:24:51;12.23;;;5.15;;
47715;SDS011;33476;50.984;3.538;2023-12-14T02:27:16;10.77;;;5.40;;
47715;SDS011;33476;50.984;3.538;2023-12-14T02:29:42;12.35;;;5.20;;
47715;SDS011;33476;50.984;3.538;2023-12-14T02:32:07;13.10;;;5.20;;
47715;SDS011;33476;50.984;3.538;2023-12-14T02:34:33;10.55;;;4.65;;
47715;SDS011;33476;50.984;3.538;2023-12-14T02:36:58;16.63;;;4.47;;
47715;SDS011;33476;50.984;3.538;2023-12-14T02:39:23;7.65;;;4.25;;
47715;SDS011;33476;50.984;3.538;2023-12-14T02:41:49;7.45;;;4.18;;
47715;SDS011;33476;50.984;3.538;2023-12-14T02:44:14;8.88;;;3.63;;
47715;SDS011;33476;50.984;3.538;2023-12-14T02:46:39;4.82;;;2.90;;
47715;SDS011;33476;50.984;3.538;2023-12-14T02:49:05;6.57;;;2.88;;
47715;SDS011;33476;50.984;3.538;2023-12-14T02:51:30;4.53;;;2.72;;
47715;SDS011;33476;50.984;3.538;2023-12-14T02:53:55;7.68;;;3.38;;
47715;SDS011;33476;50.984;3.538;2023-12-14T02:56:22;7.30;;;3.10;;
47715;SDS011;33476;50.984;3.538;2023-12-14T02:58:47;5.85;;;2.60;;
47715;SDS011;33476;50.984;3.538;2023-12-14T03:01:18;7.72;;;3.22;;
47715;SDS011;33476;50.984;3.538;2023-12-14T03:03:44;9.20;;;2.83;;
47715;SDS011;33476;50.984;3.538;2023-12-14T03:06:09;5.07;;;2.47;;
47715;SDS011;33476;50.984;3.538;2023-12-14T03:08:35;6.85;;;2.95;;
47715;SDS011;33476;50.984;3.538;2023-12-14T03:11:00;4.65;;;2.65;;
47715;SDS011;33476;50.984;3.538;2023-12-14T03:13:26;8.63;;;2.47;;
47715;SDS011;33476;50.984;3.538;2023-12-14T03:15:53;7.13;;;2.50;;
47715;SDS011;33476;50.984;3.538;2023-12-14T03:18:18;5.53;;;2.20;;
47715;SDS011;33476;50.984;3.538;2023-12-14T03:20:44;5.95;;;2.17;;
47715;SDS011;33476;50.984;3.538;2023-12-14T03:23:09;6.60;;;2.42;;
47715;SDS011;33476;50.984;3.538;2023-12-14T03:25:34;4.18;;;1.80;;
47715;SDS011;33476;50.984;3.538;2023-12-14T03:28:00;7.72;;;2.05;;
47715;SDS011;33476;50.984;3.538;2023-12-14T03:30:25;6.97;;;1.77;;
47715;SDS011;33476;50.984;3.538;2023-12-14T03:32:52;7.03;;;1.90;;
47715;SDS011;33476;50.984;3.538;2023-12-14T03:35:17;4.53;;;1.60;;
47715;SDS011;33476;50.984;3.538;2023-12-14T03:37:42;3.80;;;1.88;;
47715;SDS011;33476;50.984;3.538;2023-12-14T03:40:08;7.72;;;1.92;;
47715;SDS011;33476;50.984;3.538;2023-12-14T03:42:33;4.03;;;1.77;;
47715;SDS011;33476;50.984;3.538;2023-12-14T03:44:59;4.20;;;1.42;;
47715;SDS011;33476;50.984;3.538;2023-12-14T03:47:24;6.97;;;1.63;;
47715;SDS011;33476;50.984;3.538;2023-12-14T03:49:49;5.93;;;1.90;;
47715;SDS011;33476;50.984;3.538;2023-12-14T03:52:15;5.30;;;1.70;;
47715;SDS011;33476;50.984;3.538;2023-12-14T03:54:40;4.68;;;1.80;;
47715;SDS011;33476;50.984;3.538;2023-12-14T03:57:06;2.33;;;1.33;;
47715;SDS011;33476;50.984;3.538;2023-12-14T03:59:31;5.03;;;1.58;;
47715;SDS011;33476;50.984;3.538;2023-12-14T04:01:57;5.40;;;1.42;;
47715;SDS011;33476;50.984;3.538;2023-12-14T04:04:23;5.22;;;1.48;;
47715;SDS011;33476;50.984;3.538;2023-12-14T04:06:48;4.47;;;1.60;;
47715;SDS011;33476;50.984;3.538;2023-12-14T04:09:14;4.93;;;1.83;;
47715;SDS011;33476;50.984;3.538;2023-12-14T04:11:39;4.25;;;1.42;;
47715;SDS011;33476;50.984;3.538;2023-12-14T04:14:04;7.32;;;1.70;;
47715;SDS011;33476;50.984;3.538;2023-12-14T04:16:30;7.43;;;1.77;;
47715;SDS011;33476;50.984;3.538;2023-12-14T04:18:55;5.45;;;1.55;;
47715;SDS011;33476;50.984;3.538;2023-12-14T04:21:21;7.35;;;1.70;;
47715;SDS011;33476;50.984;3.538;2023-12-14T04:23:46;7.82;;;1.90;;
47715;SDS011;33476;50.984;3.538;2023-12-14T04:26:12;5.10;;;1.17;;
47715;SDS011;33476;50.984;3.538;2023-12-14T04:28:38;4.60;;;1.80;;
47715;SDS011;33476;50.984;3.538;2023-12-14T04:31:04;10.23;;;1.88;;
47715;SDS011;33476;50.984;3.538;2023-12-14T04:33:29;3.88;;;1.50;;
47715;SDS011;33476;50.984;3.538;2023-12-14T04:35:56;4.90;;;1.92;;
47715;SDS011;33476;50.984;3.538;2023-12-14T04:38:22;6.82;;;1.88;;
47715;SDS011;33476;50.984;3.538;2023-12-14T04:40:47;2.28;;;1.52;;
47715;SDS011;33476;50.984;3.538;2023-12-14T04:43:13;5.20;;;1.75;;
47715;SDS011;33476;50.984;3.538;2023-12-14T04:45:38;6.95;;;1.70;;
47715;SDS011;33476;50.984;3.538;2023-12-14T04:48:04;10.25;;;2.40;;
47715;SDS011;33476;50.984;3.538;2023-12-14T04:50:30;6.50;;;1.50;;
47715;SDS011;33476;50.984;3.538;2023-12-14T04:52:55;7.85;;;2.40;;
47715;SDS011;33476;50.984;3.538;2023-12-14T04:55:20;6.07;;;1.55;;
47715;SDS011;33476;50.984;3.538;2023-12-14T04:57:46;7.22;;;1.70;;
47715;SDS011;33476;50.984;3.538;2023-12-14T05:00:11;9.75;;;2.20;;
47715;SDS011;33476;50.984;3.538;2023-12-14T05:02:37;5.35;;;1.95;;
47715;SDS011;33476;50.984;3.538;2023-12-14T05:05:03;7.45;;;2.08;;
47715;SDS011;33476;50.984;3.538;2023-12-14T05:07:28;10.05;;;1.80;;
47715;SDS011;33476;50.984;3.538;2023-12-14T05:09:55;6.55;;;1.75;;
47715;SDS011;33476;50.984;3.538;2023-12-14T05:12:21;9.65;;;2.10;;
47715;SDS011;33476;50.984;3.538;2023-12-14T05:14:47;8.70;;;2.72;;
47715;SDS011;33476;50.984;3.538;2023-12-14T05:17:12;4.47;;;1.98;;
47715;SDS011;33476;50.984;3.538;2023-12-14T05:19:38;6.55;;;2.20;;
47715;SDS011;33476;50.984;3.538;2023-12-14T05:22:03;13.15;;;2.60;;
47715;SDS011;33476;50.984;3.538;2023-12-14T05:24:29;7.78;;;2.30;;
47715;SDS011;33476;50.984;3.538;2023-12-14T05:26:54;9.80;;;1.80;;
47715;SDS011;33476;50.984;3.538;2023-12-14T05:29:20;8.65;;;2.28;;
47715;SDS011;33476;50.984;3.538;2023-12-14T05:31:46;4.82;;;1.90;;
47715;SDS011;33476;50.984;3.538;2023-12-14T05:34:12;7.15;;;2.58;;
47715;SDS011;33476;50.984;3.538;2023-12-14T05:36:37;9.35;;;2.55;;
47715;SDS011;33476;50.984;3.538;2023-12-14T05:39:03;7.60;;;2.33;;
47715;SDS011;33476;50.984;3.538;2023-12-14T05:41:29;7.15;;;2.50;;
47715;SDS011;33476;50.984;3.538;2023-12-14T05:43:55;9.50;;;2.72;;
47715;SDS011;33476;50.984;3.538;2023-12-14T05:46:23;8.32;;;2.55;;
47715;SDS011;33476;50.984;3.538;2023-12-14T05:48:49;11.90;;;2.90;;
47715;SDS011;33476;50.984;3.538;2023-12-14T05:51:25;7.30;;;2.42;;
47715;SDS011;33476;50.984;3.538;2023-12-14T05:53:52;8.82;;;2.97;;
47715;SDS011;33476;50.984;3.538;2023-12-14T05:56:17;6.32;;;2.97;;
47715;SDS011;33476;50.984;3.538;2023-12-14T05:58:42;5.75;;;2.80;;
47715;SDS011;33476;50.984;3.538;2023-12-14T06:01:08;9.65;;;2.75;;
47715;SDS011;33476;50.984;3.538;2023-12-14T06:03:33;8.63;;;2.85;;
47715;SDS011;33476;50.984;3.538;2023-12-14T06:05:58;7.78;;;2.65;;
47715;SDS011;33476;50.984;3.538;2023-12-14T06:08:24;7.75;;;2.67;;
47715;SDS011;33476;50.984;3.538;2023-12-14T06:10:49;12.35;;;2.65;;
47715;SDS011;33476;50.984;3.538;2023-12-14T06:13:15;9.60;;;2.67;;
47715;SDS011;33476;50.984;3.538;2023-12-14T06:15:40;6.25;;;2.15;;
47715;SDS011;33476;50.984;3.538;2023-12-14T06:18:05;5.90;;;2.35;;
47715;SDS011;33476;50.984;3.538;2023-12-14T06:20:31;7.20;;;2.38;;
47715;SDS011;33476;50.984;3.538;2023-12-14T06:22:57;8.27;;;2.38;;
47715;SDS011;33476;50.984;3.538;2023-12-14T06:25:22;10.48;;;2.42;;
47715;SDS011;33476;50.984;3.538;2023-12-14T06:27:47;9.90;;;2.30;;
47715;SDS011;33476;50.984;3.538;2023-12-14T06:30:14;7.10;;;2.58;;
47715;SDS011;33476;50.984;3.538;2023-12-14T06:32:40;10.10;;;2.65;;
47715;SDS011;33476;50.984;3.538;2023-12-14T06:35:05;4.90;;;2.28;;
47715;SDS011;33476;50.984;3.538;2023-12-14T06:37:31;10.10;;;2.17;;
47715;SDS011;33476;50.984;3.538;2023-12-14T06:39:56;7.82;;;2.55;;
47715;SDS011;33476;50.984;3.538;2023-12-14T06:42:22;6.63;;;2.30;;
47715;SDS011;33476;50.984;3.538;2023-12-14T06:44:47;4.22;;;1.80;;
47715;SDS011;33476;50.984;3.538;2023-12-14T06:47:12;6.57;;;1.95;;
47715;SDS011;33476;50.984;3.538;2023-12-14T06:49:38;10.73;;;2.40;;
47715;SDS011;33476;50.984;3.538;2023-12-14T06:52:06;9.23;;;2.40;;
47715;SDS011;33476;50.984;3.538;2023-12-14T06:54:32;5.68;;;2.00;;
47715;SDS011;33476;50.984;3.538;2023-12-14T06:56:58;6.63;;;1.85;;
47715;SDS011;33476;50.984;3.538;2023-12-14T06:59:23;7.60;;;2.40;;
47715;SDS011;33476;50.984;3.538;2023-12-14T07:01:49;8.88;;;2.58;;
47715;SDS011;33476;50.984;3.538;2023-12-14T07:04:14;11.27;;;2.30;;
47715;SDS011;33476;50.984;3.538;2023-12-14T07:06:39;9.38;;;2.65;;
47715;SDS011;33476;50.984;3.538;2023-12-14T07:09:05;9.70;;;2.63;;
47715;SDS011;33476;50.984;3.538;2023-12-14T07:11:30;6.88;;;2.85;;
47715;SDS011;33476;50.984;3.538;2023-12-14T07:13:56;6.22;;;2.40;;
47715;SDS011;33476;50.984;3.538;2023-12-14T07:16:21;8.85;;;2.53;;
47715;SDS011;33476;50.984;3.538;2023-12-14T07:18:47;6.22;;;2.08;;
47715;SDS011;33476;50.984;3.538;2023-12-14T07:21:12;10.93;;;2.90;;
47715;SDS011;33476;50.984;3.538;2023-12-14T07:23:37;7.13;;;2.38;;
47715;SDS011;33476;50.984;3.538;2023-12-14T07:26:03;6.93;;;2.63;;
47715;SDS011;33476;50.984;3.538;2023-12-14T07:28:29;6.90;;;2.42;;
47715;SDS011;33476;50.984;3.538;2023-12-14T07:30:54;6.80;;;2.40;;
47715;SDS011;33476;50.984;3.538;2023-12-14T07:33:20;7.32;;;2.28;;
47715;SDS011;33476;50.984;3.538;2023-12-14T07:35:45;3.92;;;2.30;;
47715;SDS011;33476;50.984;3.538;2023-12-14T07:38:11;6.03;;;2.38;;
47715;SDS011;33476;50.984;3.538;2023-12-14T07:40:36;6.80;;;3.17;;
47715;SDS011;33476;50.984;3.538;2023-12-14T07:43:03;8.20;;;2.85;;
47715;SDS011;33476;50.984;3.538;2023-12-14T07:45:29;10.82;;;3.30;;
47715;SDS011;33476;50.984;3.538;2023-12-14T07:47:54;6.30;;;2.72;;
47715;SDS011;33476;50.984;3.538;2023-12-14T07:50:20;7.25;;;2.50;;
47715;SDS011;33476;50.984;3.538;2023-12-14T07:52:45;9.43;;;2.58;;
47715;SDS011;33476;50.984;3.538;2023-12-14T07:55:10;6.43;;;2.42;;
47715;SDS011;33476;50.984;3.538;2023-12-14T07:57:38;9.45;;;2.80;;
47715;SDS011;33476;50.984;3.538;2023-12-14T08:00:04;10.85;;;3.13;;
47715;SDS011;33476;50.984;3.538;2023-12-14T08:02:30;8.93;;;2.80;;
47715;SDS011;33476;50.984;3.538;2023-12-14T08:04:55;14.07;;;2.90;;
47715;SDS011;33476;50.984;3.538;2023-12-14T08:07:21;6.97;;;3.45;;
47715;SDS011;33476;50.984;3.538;2023-12-14T08:09:46;9.18;;;3.10;;
47715;SDS011;33476;50.984;3.538;2023-12-14T08:12:11;5.28;;;2.75;;
47715;SDS011;33476;50.984;3.538;2023-12-14T08:14:37;10.00;;;2.75;;
47715;SDS011;33476;50.984;3.538;2023-12-14T08:17:06;8.25;;;2.88;;
47715;SDS011;33476;50.984;3.538;2023-12-14T08:19:31;7.30;;;2.75;;
47715;SDS011;33476;50.984;3.538;2023-12-14T08:21:57;11.68;;;3.55;;
47715;SDS011;33476;50.984;3.538;2023-12-14T08:24:22;6.55;;;3.15;;
47715;SDS011;33476;50.984;3.538;2023-12-14T08:26:47;7.50;;;2.97;;
47715;SDS011;33476;50.984;3.538;2023-12-14T08:29:13;8.18;;;2.95;;
47715;SDS011;33476;50.984;3.538;2023-12-14T08:31:38;8.32;;;3.00;;
47715;SDS011;33476;50.984;3.538;2023-12-14T08:34:03;4.47;;;2.95;;
47715;SDS011;33476;50.984;3.538;2023-12-14T08:36:29;10.23;;;2.92;;
47715;SDS011;33476;50.984;3.538;2023-12-14T08:38:55;5.50;;;3.08;;
47715;SDS011;33476;50.984;3.538;2023-12-14T08:41:20;5.50;;;2.88;;
47715;SDS011;33476;50.984;3.538;2023-12-14T08:43:45;5.22;;;2.95;;
47715;SDS011;33476;50.984;3.538;2023-12-14T08:46:11;10.45;;;3.28;;
47715;SDS011;33476;50.984;3.538;2023-12-14T08:48:37;7.75;;;2.92;;
47715;SDS011;33476;50.984;3.538;2023-12-14T08:51:02;4.63;;;2.47;;
47715;SDS011;33476;50.984;3.538;2023-12-14T08:53:29;9.10;;;2.88;;
47715;SDS011;33476;50.984;3.538;2023-12-14T08:55:54;5.70;;;2.63;;
47715;SDS011;33476;50.984;3.538;2023-12-14T08:58:20;14.13;;;3.72;;
47715;SDS011;33476;50.984;3.538;2023-12-14T09:00:45;8.52;;;3.10;;
47715;SDS011;33476;50.984;3.538;2023-12-14T09:03:11;8.80;;;2.80;;
47715;SDS011;33476;50.984;3.538;2023-12-14T09:05:37;9.93;;;2.85;;
47715;SDS011;33476;50.984;3.538;2023-12-14T09:08:02;7.72;;;2.95;;
47715;SDS011;33476;50.984;3.538;2023-12-14T09:10:28;8.82;;;3.33;;
47715;SDS011;33476;50.984;3.538;2023-12-14T09:12:53;7.80;;;2.90;;
47715;SDS011;33476;50.984;3.538;2023-12-14T09:15:19;13.00;;;3.30;;
47715;SDS011;33476;50.984;3.538;2023-12-14T09:17:44;8.25;;;3.20;;
47715;SDS011;33476;50.984;3.538;2023-12-14T09:20:09;17.73;;;3.17;;
47715;SDS011;33476;50.984;3.538;2023-12-14T09:22:36;7.80;;;3.33;;
47715;SDS011;33476;50.984;3.538;2023-12-14T09:25:01;8.55;;;3.17;;
47715;SDS011;33476;50.984;3.538;2023-12-14T09:27:28;9.50;;;3.33;;
47715;SDS011;33476;50.984;3.538;2023-12-14T09:29:53;10.65;;;3.40;;
47715;SDS011;33476;50.984;3.538;2023-12-14T09:32:19;10.15;;;3.50;;
47715;SDS011;33476;50.984;3.538;2023-12-14T09:34:44;11.75;;;4.20;;
47715;SDS011;33476;50.984;3.538;2023-12-14T09:37:10;6.75;;;2.97;;
47715;SDS011;33476;50.984;3.538;2023-12-14T09:39:36;11.35;;;3.42;;
47715;SDS011;33476;50.984;3.538;2023-12-14T09:42:02;12.10;;;4.05;;
47715;SDS011;33476;50.984;3.538;2023-12-14T09:44:32;11.68;;;4.55;;
47715;SDS011;33476;50.984;3.538;2023-12-14T09:46:59;14.07;;;4.35;;
47715;SDS011;33476;50.984;3.538;2023-12-14T09:49:25;15.80;;;4.80;;
47715;SDS011;33476;50.984;3.538;2023-12-14T09:51:54;12.52;;;4.75;;
47715;SDS011;33476;50.984;3.538;2023-12-14T09:54:20;13.45;;;5.40;;
47715;SDS011;33476;50.984;3.538;2023-12-14T09:56:46;12.45;;;5.22;;
47715;SDS011;33476;50.984;3.538;2023-12-14T09:59:13;13.10;;;5.38;;
47715;SDS011;33476;50.984;3.538;2023-12-14T10:01:39;15.32;;;5.03;;
47715;SDS011;33476;50.984;3.538;2023-12-14T10:06:34;16.10;;;4.88;;
47715;SDS011;33476;50.984;3.538;2023-12-14T10:08:59;12.10;;;4.28;;
47715;SDS011;33476;50.984;3.538;2023-12-14T10:11:24;10.10;;;4.63;;
47715;SDS011;33476;50.984;3.538;2023-12-14T10:13:50;13.27;;;4.47;;
47715;SDS011;33476;50.984;3.538;2023-12-14T10:16:28;13.02;;;4.90;;
47715;SDS011;33476;50.984;3.538;2023-12-14T10:18:56;12.77;;;4.60;;
47715;SDS011;33476;50.984;3.538;2023-12-14T10:21:23;9.25;;;4.22;;
47715;SDS011;33476;50.984;3.538;2023-12-14T10:23:51;13.38;;;4.50;;
47715;SDS011;33476;50.984;3.538;2023-12-14T10:26:16;14.65;;;4.70;;
47715;SDS011;33476;50.984;3.538;2023-12-14T10:28:42;15.65;;;4.78;;
47715;SDS011;33476;50.984;3.538;2023-12-14T10:31:08;12.60;;;4.20;;
47715;SDS011;33476;50.984;3.538;2023-12-14T10:33:35;10.52;;;4.30;;
47715;SDS011;33476;50.984;3.538;2023-12-14T10:36:00;12.38;;;5.15;;
47715;SDS011;33476;50.984;3.538;2023-12-14T10:38:27;14.20;;;5.88;;
47715;SDS011;33476;50.984;3.538;2023-12-14T10:40:54;13.27;;;4.85;;
47715;SDS011;33476;50.984;3.538;2023-12-14T10:43:22;12.43;;;5.65;;
47715;SDS011;33476;50.984;3.538;2023-12-14T10:45:49;12.10;;;5.45;;
47715;SDS011;33476;50.984;3.538;2023-12-14T10:48:15;10.93;;;4.68;;
47715;SDS011;33476;50.984;3.538;2023-12-14T10:50:45;9.65;;;4.95;;
47715;SDS011;33476;50.984;3.538;2023-12-14T10:53:13;11.23;;;4.65;;
47715;SDS011;33476;50.984;3.538;2023-12-14T10:55:42;16.40;;;5.25;;
47715;SDS011;33476;50.984;3.538;2023-12-14T10:58:09;10.32;;;4.93;;
47715;SDS011;33476;50.984;3.538;2023-12-14T11:00:35;15.13;;;4.60;;
47715;SDS011;33476;50.984;3.538;2023-12-14T11:03:02;12.38;;;5.18;;
47715;SDS011;33476;50.984;3.538;2023-12-14T11:05:30;14.30;;;4.78;;
47715;SDS011;33476;50.984;3.538;2023-12-14T11:08:02;13.38;;;4.93;;
47715;SDS011;33476;50.984;3.538;2023-12-14T11:10:41;11.70;;;4.50;;
47715;SDS011;33476;50.984;3.538;2023-12-14T11:13:09;10.10;;;4.55;;
47715;SDS011;33476;50.984;3.538;2023-12-14T11:15:37;9.90;;;4.10;;
47715;SDS011;33476;50.984;3.538;2023-12-14T11:25:39;10.55;;;3.90;;
47715;SDS011;33476;50.984;3.538;2023-12-14T11:28:06;10.23;;;4.28;;
47715;SDS011;33476;50.984;3.538;2023-12-14T11:30:33;9.95;;;3.65;;
47715;SDS011;33476;50.984;3.538;2023-12-14T11:32:58;10.48;;;3.95;;
47715;SDS011;33476;50.984;3.538;2023-12-14T11:35:24;10.02;;;3.05;;
47715;SDS011;33476;50.984;3.538;2023-12-14T11:37:49;11.65;;;3.17;;
47715;SDS011;33476;50.984;3.538;2023-12-14T11:40:15;7.53;;;3.10;;
47715;SDS011;33476;50.984;3.538;2023-12-14T11:42:57;5.68;;;2.63;;
47715;SDS011;33476;50.984;3.538;2023-12-14T11:45:25;8.35;;;3.10;;
47715;SDS011;33476;50.984;3.538;2023-12-14T11:47:51;7.22;;;2.90;;
47715;SDS011;33476;50.984;3.538;2023-12-14T11:50:16;7.78;;;2.60;;
47715;SDS011;33476;50.984;3.538;2023-12-14T11:52:42;9.52;;;2.60;;
47715;SDS011;33476;50.984;3.538;2023-12-14T11:55:11;8.30;;;2.50;;
47715;SDS011;33476;50.984;3.538;2023-12-14T11:57:37;4.82;;;2.28;;
47715;SDS011;33476;50.984;3.538;2023-12-14T12:00:02;7.20;;;2.30;;
47715;SDS011;33476;50.984;3.538;2023-12-14T12:02:29;9.15;;;2.65;;
47715;SDS011;33476;50.984;3.538;2023-12-14T12:04:55;6.85;;;2.50;;
47715;SDS011;33476;50.984;3.538;2023-12-14T12:07:20;6.95;;;2.80;;
47715;SDS011;33476;50.984;3.538;2023-12-14T12:09:46;8.05;;;2.58;;
47715;SDS011;33476;50.984;3.538;2023-12-14T12:12:12;11.18;;;2.83;;
47715;SDS011;33476;50.984;3.538;2023-12-14T12:14:38;9.98;;;2.70;;
47715;SDS011;33476;50.984;3.538;2023-12-14T12:17:04;9.27;;;2.47;;
47715;SDS011;33476;50.984;3.538;2023-12-14T12:19:34;4.43;;;1.98;;
47715;SDS011;33476;50.984;3.538;2023-12-14T12:22:00;4.90;;;1.23;;
47715;SDS011;33476;50.984;3.538;2023-12-14T12:24:26;9.77;;;1.80;;
47715;SDS011;33476;50.984;3.538;2023-12-14T12:26:52;10.10;;;1.60;;
47715;SDS011;33476;50.984;3.538;2023-12-14T12:29:17;9.05;;;1.58;;
47715;SDS011;33476;50.984;3.538;2023-12-14T12:31:43;5.53;;;1.30;;
47715;SDS011;33476;50.984;3.538;2023-12-14T12:34:10;8.40;;;1.58;;
47715;SDS011;33476;50.984;3.538;2023-12-14T12:36:36;6.10;;;1.80;;
47715;SDS011;33476;50.984;3.538;2023-12-14T12:39:01;6.68;;;1.52;;
47715;SDS011;33476;50.984;3.538;2023-12-14T12:41:28;6.20;;;1.50;;
47715;SDS011;33476;50.984;3.538;2023-12-14T12:43:53;6.22;;;1.17;;
47715;SDS011;33476;50.984;3.538;2023-12-14T12:46:19;4.40;;;0.60;;
47715;SDS011;33476;50.984;3.538;2023-12-14T12:48:44;4.03;;;0.57;;
47715;SDS011;33476;50.984;3.538;2023-12-14T12:51:11;7.53;;;1.02;;
47715;SDS011;33476;50.984;3.538;2023-12-14T12:53:37;2.40;;;0.50;;
47715;SDS011;33476;50.984;3.538;2023-12-14T12:56:03;2.33;;;0.45;;
47715;SDS011;33476;50.984;3.538;2023-12-14T12:58:28;6.00;;;0.57;;
47715;SDS011;33476;50.984;3.538;2023-12-14T13:00:54;1.60;;;0.40;;
47715;SDS011;33476;50.984;3.538;2023-12-14T13:03:20;5.32;;;0.60;;
47715;SDS011;33476;50.984;3.538;2023-12-14T13:05:45;4.53;;;0.47;;
47715;SDS011;33476;50.984;3.538;2023-12-14T13:08:11;4.07;;;0.57;;
47715;SDS011;33476;50.984;3.538;2023-12-14T13:10:36;6.32;;;0.63;;
47715;SDS011;33476;50.984;3.538;2023-12-14T13:13:04;3.75;;;0.55;;
47715;SDS011;33476;50.984;3.538;2023-12-14T13:15:29;4.28;;;0.50;;
47715;SDS011;33476;50.984;3.538;2023-12-14T13:17:56;4.03;;;0.40;;
47715;SDS011;33476;50.984;3.538;2023-12-14T13:20:21;3.00;;;0.65;;
47715;SDS011;33476;50.984;3.538;2023-12-14T13:22:47;3.65;;;0.40;;
47715;SDS011;33476;50.984;3.538;2023-12-14T13:25:12;6.88;;;0.88;;
47715;SDS011;33476;50.984;3.538;2023-12-14T13:27:38;6.72;;;0.98;;
47715;SDS011;33476;50.984;3.538;2023-12-14T13:30:04;5.80;;;0.68;;
47715;SDS011;33476;50.984;3.538;2023-12-14T13:32:29;8.15;;;0.60;;
47715;SDS011;33476;50.984;3.538;2023-12-14T13:34:55;2.85;;;0.60;;
47715;SDS011;33476;50.984;3.538;2023-12-14T13:37:20;3.20;;;0.50;;
47715;SDS011;33476;50.984;3.538;2023-12-14T13:39:46;9.35;;;0.63;;
47715;SDS011;33476;50.984;3.538;2023-12-14T13:42:12;4.28;;;0.50;;
47715;SDS011;33476;50.984;3.538;2023-12-14T13:44:40;3.83;;;0.60;;
47715;SDS011;33476;50.984;3.538;2023-12-14T13:47:06;3.60;;;0.57;;
47715;SDS011;33476;50.984;3.538;2023-12-14T13:49:33;6.38;;;0.80;;
47715;SDS011;33476;50.984;3.538;2023-12-14T13:51:58;6.50;;;0.45;;
47715;SDS011;33476;50.984;3.538;2023-12-14T13:54:23;7.25;;;0.50;;
47715;SDS011;33476;50.984;3.538;2023-12-14T13:56:49;5.18;;;0.60;;
47715;SDS011;33476;50.984;3.538;2023-12-14T13:59:14;4.63;;;0.38;;
47715;SDS011;33476;50.984;3.538;2023-12-14T14:01:40;5.18;;;0.30;;
47715;SDS011;33476;50.984;3.538;2023-12-14T14:04:05;3.95;;;0.60;;
47715;SDS011;33476;50.984;3.538;2023-12-14T14:06:30;4.50;;;0.30;;
47715;SDS011;33476;50.984;3.538;2023-12-14T14:08:56;6.55;;;0.75;;
47715;SDS011;33476;50.984;3.538;2023-12-14T14:11:21;6.00;;;0.40;;
47715;SDS011;33476;50.984;3.538;2023-12-14T14:13:47;3.83;;;0.50;;
47715;SDS011;33476;50.984;3.538;2023-12-14T14:16:13;14.00;;;0.70;;
47715;SDS011;33476;50.984;3.538;2023-12-14T14:18:38;2.38;;;0.60;;
47715;SDS011;33476;50.984;3.538;2023-12-14T14:21:04;5.03;;;0.60;;
47715;SDS011;33476;50.984;3.538;2023-12-14T14:23:33;4.65;;;0.63;;
47715;SDS011;33476;50.984;3.538;2023-12-14T14:25:58;7.00;;;0.40;;
47715;SDS011;33476;50.984;3.538;2023-12-14T14:28:24;2.78;;;0.40;;
47715;SDS011;33476;50.984;3.538;2023-12-14T14:30:49;2.80;;;0.20;;
47715;SDS011;33476;50.984;3.538;2023-12-14T14:33:15;5.50;;;0.50;;
47715;SDS011;33476;50.984;3.538;2023-12-14T14:35:46;2.97;;;0.28;;
47715;SDS011;33476;50.984;3.538;2023-12-14T14:38:12;3.47;;;0.40;;
47715;SDS011;33476;50.984;3.538;2023-12-14T14:40:38;4.32;;;0.47;;
47715;SDS011;33476;50.984;3.538;2023-12-14T14:43:04;3.72;;;0.40;;